Time;durP1;ratioP1;P1;durP2;ratioP2;P2;SDS_P1;SDS_P2;PMS_P1;PMS_P2;Temp;Humidity;BMP_temperature;BMP_pressure;BME280_temperature;BME280_humidity;BME280_pressure;Samples;Min_cycle;Max_cycle;Signal;HPM_P1;HPM_P2
2023/11/04 00:01:21;;;;;;;4.32;1.42;;;;;;;6.14;100.00;96015.16;15276017;19;20026;-47
2023/11/04 00:06:46;;;;;;;5.15;1.30;;;;;;;6.13;100.00;96018.84;15274570;19;20472;-49
2023/11/04 00:12:13;;;;;;;4.70;1.30;;;;;;;6.12;100.00;96018.03;15277768;19;20988;-50
2023/11/04 00:17:38;;;;;;;6.28;1.23;;;;;;;6.10;100.00;96014.72;15272652;19;20325;-48
2023/11/04 00:23:02;;;;;;;4.63;1.20;;;;;;;6.07;100.00;96014.28;15265561;19;20025;-47
2023/11/04 00:28:31;;;;;;;5.18;1.20;;;;;;;6.04;100.00;96023.53;15271487;19;20629;-47
2023/11/04 00:33:56;;;;;;;3.38;1.30;;;;;;;6.01;100.00;96016.69;15265568;19;20074;-50
2023/11/04 00:39:20;;;;;;;6.18;1.42;;;;;;;5.96;100.00;96018.25;15266538;19;20026;-49
2023/11/04 00:44:47;;;;;;;4.25;1.17;;;;;;;5.88;100.00;96032.56;15270528;19;20031;-46
2023/11/04 00:50:14;;;;;;;5.20;1.48;;;;;;;5.88;100.00;96029.09;15269370;19;20030;-48
2023/11/04 00:55:39;;;;;;;4.05;1.25;;;;;;;5.84;100.00;96021.44;15262228;19;20022;-48
2023/11/04 01:01:08;;;;;;;4.90;1.10;;;;;;;5.78;100.00;96022.22;15273278;19;20066;-50
2023/11/04 01:06:39;;;;;;;4.55;1.27;;;;;;;5.71;100.00;96027.50;15268305;19;20014;-52
2023/11/04 01:12:03;;;;;;;4.55;1.27;;;;;;;5.68;100.00;96030.53;15266196;19;20039;-48
2023/11/04 01:17:31;;;;;;;4.40;1.20;;;;;;;5.65;100.00;96027.41;15269183;19;20043;-46
2023/11/04 01:22:55;;;;;;;4.68;1.38;;;;;;;5.60;100.00;96024.47;15264736;19;20093;-48
2023/11/04 01:28:21;;;;;;;6.57;1.50;;;;;;;5.57;100.00;96035.56;15265757;19;20502;-52
2023/11/04 01:33:48;;;;;;;2.58;1.20;;;;;;;5.46;100.00;96032.38;15263504;19;20089;-49
2023/11/04 01:39:14;;;;;;;6.53;1.55;;;;;;;5.44;100.00;96041.56;15268333;19;20029;-49
2023/11/04 01:44:39;;;;;;;6.18;1.30;;;;;;;5.41;100.00;96045.44;15271587;19;20479;-47
2023/11/04 01:50:07;;;;;;;3.63;1.10;;;;;;;5.37;100.00;96036.97;15275298;19;20020;-51
2023/11/04 01:55:31;;;;;;;5.22;1.27;;;;;;;5.34;100.00;96028.53;15273109;19;20078;-54
2023/11/04 02:00:58;;;;;;;6.80;1.45;;;;;;;5.33;100.00;96025.00;15268133;19;20022;-48
2023/11/04 02:06:25;;;;;;;4.38;1.25;;;;;;;5.33;100.00;96024.19;15266375;19;20033;-46
2023/11/04 02:11:50;;;;;;;4.47;1.20;;;;;;;5.35;100.00;96028.31;15265343;19;20366;-46
2023/11/04 02:17:14;;;;;;;4.35;1.30;;;;;;;5.34;100.00;96026.66;15266355;19;20408;-50
2023/11/04 02:22:43;;;;;;;4.95;1.35;;;;;;;5.32;100.00;96023.34;15267632;19;20078;-49
2023/11/04 02:28:07;;;;;;;7.10;1.30;;;;;;;5.25;100.00;96017.13;15267820;19;20131;-48
2023/11/04 02:33:32;;;;;;;5.10;1.40;;;;;;;5.21;100.00;96019.34;15261351;19;20094;-51
2023/11/04 02:39:00;;;;;;;4.90;1.40;;;;;;;5.11;100.00;96016.16;15269503;19;20018;-52
2023/11/04 02:44:26;;;;;;;3.15;1.30;;;;;;;5.06;100.00;96013.19;15262839;19;20448;-50
2023/11/04 02:49:50;;;;;;;3.30;1.23;;;;;;;5.10;100.00;96009.16;15266541;19;20015;-51
2023/11/04 02:55:18;;;;;;;5.70;1.20;;;;;;;5.12;100.00;96009.75;15263323;19;20023;-54
2023/11/04 03:00:42;;;;;;;3.45;1.05;;;;;;;5.13;100.00;96010.59;15264081;19;20015;-51
2023/11/04 03:06:07;;;;;;;4.65;1.02;;;;;;;5.07;100.00;96004.19;15258073;19;20018;-51
2023/11/04 03:11:34;;;;;;;4.20;1.30;;;;;;;5.04;100.00;96017.88;15267131;19;20043;-54
2023/11/04 03:17:00;;;;;;;5.25;1.15;;;;;;;4.95;100.00;96017.16;15264382;19;21358;-49
2023/11/04 03:22:25;;;;;;;6.43;1.30;;;;;;;4.91;100.00;96008.69;15266955;19;20396;-54
2023/11/04 03:27:52;;;;;;;5.60;1.35;;;;;;;4.90;100.00;96012.38;15264088;19;20022;-49
2023/11/04 03:33:17;;;;;;;3.58;1.23;;;;;;;4.90;100.00;96008.88;15268870;19;20014;-54
2023/11/04 03:38:41;;;;;;;3.75;1.10;;;;;;;4.90;100.00;96004.38;15283836;19;20024;-51
2023/11/04 03:44:09;;;;;;;4.68;1.40;;;;;;;4.84;100.00;96005.13;15286057;19;20074;-54
2023/11/04 03:49:34;;;;;;;3.40;1.30;;;;;;;4.80;100.00;96009.16;15279737;19;20796;-54
2023/11/04 03:54:59;;;;;;;3.35;1.30;;;;;;;4.73;100.00;96009.06;15280791;19;20011;-50
2023/11/04 04:00:28;;;;;;;3.17;1.15;;;;;;;4.65;100.00;96011.00;15274997;19;20011;-52
2023/11/04 04:05:53;;;;;;;3.63;1.23;;;;;;;4.63;100.00;96009.38;15272843;19;20097;-53
2023/11/04 04:11:18;;;;;;;5.68;1.20;;;;;;;4.63;100.00;96017.38;15285183;19;20421;-52
2023/11/04 04:16:47;;;;;;;3.35;1.20;;;;;;;4.62;100.00;96015.69;15275842;19;20014;-49
2023/11/04 04:22:14;;;;;;;3.45;1.05;;;;;;;4.64;100.00;96023.50;15286088;19;20478;-49
2023/11/04 04:27:39;;;;;;;2.85;0.95;;;;;;;4.73;100.00;96008.25;15279872;19;20082;-51
2023/11/04 04:33:06;;;;;;;3.03;1.10;;;;;;;4.81;100.00;96005.47;15280391;19;20043;-50
2023/11/04 04:38:31;;;;;;;2.05;1.00;;;;;;;4.92;100.00;96005.00;15279029;19;20097;-51
2023/11/04 04:43:56;;;;;;;2.35;0.98;;;;;;;4.99;100.00;96004.28;15277717;19;20038;-50
2023/11/04 04:49:23;;;;;;;2.50;1.00;;;;;;;5.04;100.00;95996.53;15273831;19;20011;-51
2023/11/04 04:54:49;;;;;;;2.38;1.00;;;;;;;5.11;100.00;96002.81;15279731;19;20697;-50
2023/11/04 05:00:15;;;;;;;2.65;0.90;;;;;;;5.26;100.00;95994.75;15280351;19;20018;-52
2023/11/04 05:05:43;;;;;;;2.10;0.80;;;;;;;5.38;100.00;95989.75;15272289;19;20468;-49
2023/11/04 05:11:08;;;;;;;1.85;0.85;;;;;;;5.46;100.00;95983.47;15269520;19;20594;-48
2023/11/04 05:16:33;;;;;;;1.48;0.80;;;;;;;5.48;100.00;95982.25;15270744;19;20038;-53
2023/11/04 05:22:01;;;;;;;4.47;0.90;;;;;;;5.51;100.00;95976.53;15277147;19;20356;-52
2023/11/04 05:27:26;;;;;;;1.50;0.80;;;;;;;5.61;100.00;95978.06;15268863;19;20023;-48
2023/11/04 05:32:50;;;;;;;2.83;0.80;;;;;;;5.67;100.00;95971.97;15273448;19;20014;-53
2023/11/04 05:38:18;;;;;;;3.08;0.82;;;;;;;5.75;100.00;95969.16;15272190;19;20027;-52
2023/11/04 05:43:43;;;;;;;1.58;1.08;;;;;;;5.81;100.00;95971.09;15262220;19;20074;-50
2023/11/04 05:49:07;;;;;;;2.20;0.77;;;;;;;5.89;100.00;95974.63;15267967;19;20431;-49
2023/11/04 05:54:34;;;;;;;0.88;0.60;;;;;;;5.94;100.00;95966.88;15269982;19;20289;-49
2023/11/04 06:00:05;;;;;;;2.97;0.70;;;;;;;5.89;100.00;95963.94;15271589;19;20942;-54
2023/11/04 06:05:30;;;;;;;0.90;0.70;;;;;;;5.82;100.00;95958.53;15267552;19;20010;-49
2023/11/04 06:11:05;;;;;;;0.90;0.60;;;;;;;5.83;100.00;95961.00;15266922;19;20018;-48
2023/11/04 06:16:35;;;;;;;2.28;0.70;;;;;;;5.86;100.00;95949.94;15238323;19;20405;-52
2023/11/04 06:22:01;;;;;;;1.23;0.73;;;;;;;5.88;100.00;95952.41;15270483;19;20086;-52
2023/11/04 06:27:28;;;;;;;1.10;0.45;;;;;;;5.91;100.00;95940.53;15266580;19;20022;-49
2023/11/04 06:32:54;;;;;;;1.88;0.77;;;;;;;5.94;100.00;95943.63;15268883;19;20016;-49
2023/11/04 06:38:19;;;;;;;1.05;0.65;;;;;;;5.98;100.00;95936.06;15267656;19;20027;-47
2023/11/04 06:43:47;;;;;;;0.70;0.60;;;;;;;6.05;100.00;95939.66;15265876;19;20026;-49
2023/11/04 06:49:12;;;;;;;2.80;0.60;;;;;;;6.13;100.00;95931.47;15260554;19;20012;-50
2023/11/04 06:54:37;;;;;;;0.73;0.60;;;;;;;6.19;100.00;95931.72;15266388;19;20396;-48
2023/11/04 07:00:05;;;;;;;1.42;0.70;;;;;;;6.21;100.00;95932.34;15268637;19;20048;-53
2023/11/04 07:05:30;;;;;;;1.38;0.70;;;;;;;6.14;100.00;95930.47;15262753;19;20025;-49
2023/11/04 07:11:01;;;;;;;0.88;0.50;;;;;;;6.11;100.00;95928.16;15279452;19;20019;-48
2023/11/04 07:16:28;;;;;;;1.47;0.70;;;;;;;6.09;100.00;95922.19;15276874;19;20452;-53
2023/11/04 07:21:54;;;;;;;1.02;0.60;;;;;;;6.10;100.00;95918.50;15277111;19;20019;-50
2023/11/04 07:27:19;;;;;;;1.38;0.90;;;;;;;6.12;100.00;95911.13;15275879;19;20027;-49
2023/11/04 07:32:47;;;;;;;2.22;1.00;;;;;;;6.14;100.00;95911.75;15276639;19;20035;-50
2023/11/04 07:38:12;;;;;;;0.85;0.70;;;;;;;6.19;100.00;95911.16;15271864;19;20010;-50
2023/11/04 07:43:36;;;;;;;1.05;0.70;;;;;;;6.25;100.00;95920.25;15275005;19;20021;-51
2023/11/04 07:49:04;;;;;;;1.67;0.60;;;;;;;6.31;100.00;95908.75;15275401;19;20022;-53
2023/11/04 07:54:29;;;;;;;0.52;0.43;;;;;;;6.36;100.00;95906.34;15273073;19;20035;-49
2023/11/04 07:59:54;;;;;;;1.10;0.70;;;;;;;6.46;100.00;95885.41;15280686;19;20038;-51
2023/11/04 08:05:22;;;;;;;2.20;0.82;;;;;;;6.56;100.00;95885.03;15274667;19;20035;-50
2023/11/04 08:10:53;;;;;;;0.50;0.50;;;;;;;6.67;100.00;95880.16;15273263;19;20090;-49
2023/11/04 08:16:18;;;;;;;1.60;0.70;;;;;;;6.78;100.00;95882.25;15274422;19;20010;-51
2023/11/04 08:21:46;;;;;;;0.40;0.40;;;;;;;6.93;100.00;95876.75;15275168;19;20752;-52
2023/11/04 08:27:12;;;;;;;2.53;0.77;;;;;;;7.06;100.00;95883.97;15267917;19;20363;-49
2023/11/04 08:32:37;;;;;;;1.17;0.50;;;;;;;7.14;100.00;95872.25;15277683;19;20050;-51
2023/11/04 08:38:06;;;;;;;0.45;0.40;;;;;;;7.24;100.00;95870.00;15276632;19;20051;-47
2023/11/04 08:43:32;;;;;;;0.93;0.50;;;;;;;7.34;100.00;95858.91;15293034;19;20025;-49
2023/11/04 08:48:56;;;;;;;2.03;0.70;;;;;;;7.49;100.00;95866.75;15272734;19;20014;-53
2023/11/04 08:54:24;;;;;;;1.13;0.60;;;;;;;7.66;100.00;95857.28;15276533;19;20032;-49
2023/11/04 08:59:49;;;;;;;1.80;0.45;;;;;;;7.81;100.00;95854.38;15272737;19;20018;-50
2023/11/04 09:05:16;;;;;;;1.42;0.50;;;;;;;8.01;100.00;95850.84;15275391;19;20484;-55
2023/11/04 09:11:00;;;;;;;1.55;0.40;;;;;;;8.25;100.00;95848.53;15273749;19;20730;-50
2023/11/04 09:16:27;;;;;;;0.35;0.35;;;;;;;8.44;100.00;95836.94;15270461;19;20023;-54
2023/11/04 09:21:52;;;;;;;0.32;0.30;;;;;;;8.56;100.00;95831.75;15274658;19;20539;-52
2023/11/04 09:27:19;;;;;;;0.65;0.32;;;;;;;8.75;100.00;95826.53;15272424;19;20351;-54
2023/11/04 09:32:44;;;;;;;1.02;0.30;;;;;;;8.94;100.00;95830.13;15266671;19;20040;-53
2023/11/04 09:38:09;;;;;;;2.38;0.40;;;;;;;8.98;100.00;95811.75;15275442;19;20015;-52
2023/11/04 09:43:36;;;;;;;2.13;0.50;;;;;;;8.97;100.00;95813.59;15274297;19;20038;-49
2023/11/04 09:49:02;;;;;;;0.65;0.40;;;;;;;8.96;100.00;95792.34;15272990;19;20029;-51
2023/11/04 09:54:28;;;;;;;0.85;0.30;;;;;;;8.98;100.00;95795.66;15273040;19;20097;-50
2023/11/04 09:59:57;;;;;;;0.70;0.40;;;;;;;8.93;100.00;95781.00;15273343;19;20014;-53
2023/11/04 10:05:25;;;;;;;0.70;0.40;;;;;;;8.92;100.00;95778.53;15263094;19;20021;-48
2023/11/04 10:10:57;;;;;;;1.27;0.50;;;;;;;9.04;100.00;95775.97;15267318;19;20018;-52
2023/11/04 10:16:25;;;;;;;1.38;0.50;;;;;;;9.24;100.00;95765.09;15268634;19;20022;-50
2023/11/04 10:21:51;;;;;;;2.28;0.50;;;;;;;9.36;100.00;95739.16;15270807;19;20044;-48
2023/11/04 10:27:23;;;;;;;0.40;0.40;;;;;;;9.37;100.00;95732.75;15253083;19;20022;-52
2023/11/04 10:32:51;;;;;;;0.70;0.47;;;;;;;9.34;100.00;95725.13;15263100;19;20538;-51
2023/11/04 10:38:20;;;;;;;0.75;0.43;;;;;;;9.37;100.00;95719.31;15272536;19;20014;-48
2023/11/04 10:43:53;;;;;;;0.90;0.40;;;;;;;9.45;100.00;95707.47;15270159;19;20476;-51
2023/11/04 10:49:28;;;;;;;0.88;0.30;;;;;;;9.48;100.00;95698.13;14773218;19;10000183;-54
2023/11/04 10:55:07;;;;;;;3.10;0.50;;;;;;;9.50;100.00;95710.28;15314896;19;20030;-54
2023/11/04 11:00:35;;;;;;;0.43;0.30;;;;;;;9.61;100.00;95689.94;15274244;19;20653;-52
2023/11/04 11:06:06;;;;;;;0.30;0.30;;;;;;;9.76;100.00;95669.94;15266355;19;20123;-51
2023/11/04 11:11:48;;;;;;;1.02;0.30;;;;;;;9.95;100.00;95673.44;15271547;19;20014;-53
2023/11/04 11:17:13;;;;;;;0.37;0.27;;;;;;;10.11;100.00;95662.06;15265867;19;20017;-51
2023/11/04 11:22:40;;;;;;;0.73;0.32;;;;;;;10.24;100.00;95644.91;15272478;19;20633;-52
2023/11/04 11:28:17;;;;;;;0.30;0.20;;;;;;;10.32;100.00;95639.25;15254690;19;20058;-54
2023/11/04 11:33:43;;;;;;;1.45;0.60;;;;;;;10.38;100.00;95640.22;15265025;19;20285;-50
2023/11/04 11:39:13;;;;;;;1.48;0.30;;;;;;;10.32;100.00;95620.41;15258083;19;20058;-51
2023/11/04 11:44:37;;;;;;;0.30;0.30;;;;;;;10.31;100.00;95623.31;15255798;19;20015;-49
2023/11/04 11:50:03;;;;;;;0.55;0.55;;;;;;;10.44;100.00;95622.34;15260428;19;20513;-56
2023/11/04 11:55:30;;;;;;;0.60;0.60;;;;;;;10.73;100.00;95615.28;15261275;19;20078;-50
2023/11/04 12:00:56;;;;;;;0.20;0.20;;;;;;;10.77;100.00;95604.84;15276756;19;20047;-50
2023/11/04 12:06:22;;;;;;;0.60;0.43;;;;;;;10.77;100.00;95600.28;15275042;19;20025;-55
2023/11/04 12:11:53;;;;;;;0.25;0.25;;;;;;;10.91;100.00;95594.66;15275270;19;20023;-47
2023/11/04 12:17:17;;;;;;;0.43;0.40;;;;;;;11.02;100.00;95585.78;15274117;19;20014;-49
2023/11/04 12:22:42;;;;;;;0.43;0.40;;;;;;;11.01;100.00;95573.34;15282474;19;20479;-54
2023/11/04 12:28:11;;;;;;;0.43;0.30;;;;;;;11.13;100.00;95559.91;15281637;19;20077;-51
2023/11/04 12:33:37;;;;;;;0.77;0.30;;;;;;;11.12;100.00;95547.47;15278011;19;20023;-50
2023/11/04 12:39:02;;;;;;;0.30;0.30;;;;;;;11.20;100.00;95543.59;15274932;19;20478;-54
2023/11/04 12:44:31;;;;;;;0.82;0.40;;;;;;;11.40;100.00;95541.34;15272449;19;20040;-51
2023/11/04 12:49:56;;;;;;;1.42;0.30;;;;;;;11.37;100.00;95517.56;15276173;19;20011;-50
2023/11/04 12:55:22;;;;;;;0.32;0.30;;;;;;;11.24;100.00;95505.19;15275822;19;20011;-50
2023/11/04 13:00:49;;;;;;;0.32;0.28;;;;;;;11.27;100.00;95511.94;15279453;19;20015;-49
2023/11/04 13:06:14;;;;;;;0.45;0.35;;;;;;;11.29;100.00;95506.34;15270382;19;20017;-51
2023/11/04 13:11:45;;;;;;;0.70;0.50;;;;;;;11.33;100.00;95485.94;15271337;19;20106;-49
2023/11/04 13:17:13;;;;;;;0.20;0.20;;;;;;;11.26;100.00;95472.59;15266662;19;20867;-49
2023/11/04 13:22:38;;;;;;;0.20;0.20;;;;;;;11.20;100.00;95465.47;15276719;19;20090;-49
2023/11/04 13:28:03;;;;;;;0.77;0.30;;;;;;;11.18;100.00;95449.53;15274613;19;20014;-50
2023/11/04 13:33:30;;;;;;;0.65;0.20;;;;;;;11.23;100.00;95433.47;15276282;19;20021;-53
2023/11/04 13:38:56;;;;;;;0.20;0.20;;;;;;;11.03;100.00;95419.59;15274116;19;20268;-53
2023/11/04 13:44:28;;;;;;;1.38;0.90;;;;;;;10.81;100.00;95405.94;15275015;19;20015;-51
2023/11/04 13:49:55;;;;;;;1.90;1.80;;;;;;;10.56;100.00;95396.25;15266987;19;20039;-53
2023/11/04 13:55:20;;;;;;;0.60;0.30;;;;;;;10.33;100.00;95384.44;15270681;19;20096;-50
2023/11/04 14:00:45;;;;;;;0.60;0.30;;;;;;;10.12;100.00;95369.69;15273935;19;20015;-53
2023/11/04 14:06:13;;;;;;;0.32;0.30;;;;;;;9.98;100.00;95377.19;15268871;19;20011;-53
2023/11/04 14:11:44;;;;;;;0.38;0.30;;;;;;;9.92;100.00;95367.38;15269727;19;20017;-52
2023/11/04 14:17:10;;;;;;;0.35;0.30;;;;;;;9.80;100.00;95368.19;15264743;19;20349;-53
2023/11/04 14:22:37;;;;;;;0.20;0.20;;;;;;;9.72;100.00;95355.06;15265838;19;20022;-50
2023/11/04 14:28:02;;;;;;;1.23;0.30;;;;;;;9.62;100.00;95352.97;15272789;19;20703;-50
2023/11/04 14:33:26;;;;;;;0.20;0.20;;;;;;;9.54;100.00;95346.03;15271016;19;20021;-53
2023/11/04 14:38:53;;;;;;;0.28;0.13;;;;;;;9.47;100.00;95348.00;15270585;19;20011;-51
2023/11/04 14:44:18;;;;;;;0.85;0.32;;;;;;;9.42;100.00;95337.13;15268585;19;20016;-50
2023/11/04 14:49:44;;;;;;;1.85;0.43;;;;;;;9.35;100.00;95337.22;15268480;19;20017;-49
2023/11/04 14:55:11;;;;;;;0.30;0.30;;;;;;;9.32;100.00;95326.13;15262441;19;20018;-51
2023/11/04 15:00:36;;;;;;;0.60;0.40;;;;;;;9.24;100.00;95317.34;15267867;19;20714;-49
2023/11/04 15:06:01;;;;;;;0.30;0.30;;;;;;;9.20;100.00;95318.88;15267050;19;20014;-54
2023/11/04 15:11:35;;;;;;;0.40;0.30;;;;;;;9.15;100.00;95309.84;15264691;19;20425;-49
2023/11/04 15:17:00;;;;;;;1.65;0.30;;;;;;;9.13;100.00;95302.00;15264141;19;20078;-51
2023/11/04 15:22:25;;;;;;;0.35;0.30;;;;;;;9.12;100.00;95286.94;15270380;19;20031;-52
2023/11/04 15:27:52;;;;;;;0.30;0.20;;;;;;;9.10;100.00;95275.63;15264137;19;20010;-50
2023/11/04 15:33:17;;;;;;;0.40;0.40;;;;;;;9.12;100.00;95268.16;15278930;19;20025;-53
2023/11/04 15:38:42;;;;;;;3.05;2.75;;;;;;;9.07;100.00;95247.38;15278430;19;20481;-52
2023/11/04 15:44:09;;;;;;;1.88;0.47;;;;;;;9.05;100.00;95225.31;15279784;19;20022;-49
2023/11/04 15:49:34;;;;;;;0.50;0.40;;;;;;;9.04;100.00;95218.31;15280767;19;20040;-50
2023/11/04 15:54:58;;;;;;;0.40;0.40;;;;;;;9.02;100.00;95231.16;15279551;19;20023;-52
2023/11/04 16:00:27;;;;;;;0.63;0.50;;;;;;;9.03;100.00;95215.84;15275611;19;20029;-53
2023/11/04 16:05:51;;;;;;;0.40;0.40;;;;;;;9.02;100.00;95180.13;15276389;19;20022;-49
2023/11/04 16:11:16;;;;;;;0.32;0.30;;;;;;;9.03;100.00;95149.56;15275388;19;20021;-51
2023/11/04 16:16:43;;;;;;;0.38;0.20;;;;;;;9.05;100.00;95154.69;15276079;19;20025;-53
2023/11/04 16:22:08;;;;;;;2.95;0.40;;;;;;;9.06;100.00;95183.16;15278988;19;20024;-52
2023/11/04 16:27:33;;;;;;;0.77;0.30;;;;;;;9.07;100.00;95160.63;15280204;19;20007;-52
2023/11/04 16:33:00;;;;;;;0.40;0.40;;;;;;;9.06;100.00;95154.44;15279190;19;20022;-53
2023/11/04 16:38:25;;;;;;;1.15;0.38;;;;;;;9.07;100.00;95137.28;15278683;19;20014;-51
2023/11/04 16:43:50;;;;;;;0.60;0.30;;;;;;;9.09;100.00;95135.19;15276953;19;20025;-52
2023/11/04 16:49:17;;;;;;;0.45;0.40;;;;;;;9.12;100.00;95106.22;15276971;19;20018;-53
2023/11/04 16:54:42;;;;;;;3.55;0.50;;;;;;;9.17;100.00;95069.56;15273446;19;20511;-50
2023/11/04 17:00:09;;;;;;;0.88;0.40;;;;;;;9.18;100.00;95051.56;15275833;19;20007;-53
2023/11/04 17:05:36;;;;;;;0.68;0.50;;;;;;;9.21;100.00;95046.56;15274632;19;20020;-49
2023/11/04 17:11:08;;;;;;;1.08;0.40;;;;;;;9.24;100.00;95054.13;15273547;19;20022;-54
2023/11/04 17:16:33;;;;;;;0.70;0.50;;;;;;;9.30;100.00;95091.88;15274162;19;20541;-53
2023/11/04 17:22:05;;;;;;;0.40;0.40;;;;;;;9.32;100.00;95074.44;15271584;19;20014;-51
2023/11/04 17:27:31;;;;;;;1.85;0.40;;;;;;;9.37;100.00;95071.06;15274637;19;20389;-55
2023/11/04 17:32:55;;;;;;;0.60;0.43;;;;;;;9.38;100.00;95051.19;15265130;19;20488;-52
2023/11/04 17:38:24;;;;;;;0.88;0.50;;;;;;;9.39;100.00;95034.03;15274797;19;20244;-49
2023/11/04 17:43:48;;;;;;;0.55;0.30;;;;;;;9.35;100.00;95022.94;15272453;19;20015;-52
2023/11/04 17:49:13;;;;;;;0.43;0.40;;;;;;;9.37;100.00;95015.47;15270883;19;20024;-54
2023/11/04 17:54:40;;;;;;;0.28;0.28;;;;;;;9.43;100.00;95013.72;15267841;19;20019;-49
2023/11/04 18:00:09;;;;;;;1.15;0.30;;;;;;;9.47;100.00;95014.84;15271596;19;20382;-51
2023/11/04 18:05:33;;;;;;;0.30;0.30;;;;;;;9.53;100.00;95048.84;15260213;19;20492;-54
2023/11/04 18:11:07;;;;;;;0.93;0.40;;;;;;;9.58;100.00;95033.88;15269143;19;20356;-54
2023/11/04 18:16:32;;;;;;;0.55;0.38;;;;;;;9.60;100.00;95026.38;15270779;19;20090;-53
2023/11/04 18:21:56;;;;;;;3.22;0.40;;;;;;;9.55;100.00;95027.94;15271598;19;20013;-53
2023/11/04 18:27:25;;;;;;;0.40;0.40;;;;;;;9.41;100.00;95042.66;15270792;19;20018;-49
2023/11/04 18:33:07;;;;;;;0.60;0.50;;;;;;;9.17;100.00;95023.91;15269283;19;20010;-50
2023/11/04 18:38:32;;;;;;;2.47;0.50;;;;;;;9.02;100.00;95037.00;15266741;19;20006;-52
2023/11/04 18:43:59;;;;;;;1.48;0.50;;;;;;;8.93;100.00;95036.56;15271229;19;20015;-49
2023/11/04 18:49:24;;;;;;;0.52;0.28;;;;;;;8.87;100.00;95043.69;15269392;19;20022;-49
2023/11/04 18:54:49;;;;;;;0.52;0.50;;;;;;;8.82;100.00;95011.34;15268440;19;20350;-53
2023/11/04 19:00:18;;;;;;;0.35;0.30;;;;;;;8.76;100.00;94993.53;15267358;19;20014;-52
2023/11/04 19:05:42;;;;;;;0.80;0.60;;;;;;;8.69;100.00;94987.44;15270782;19;20025;-54
2023/11/04 19:11:13;;;;;;;1.45;0.93;;;;;;;8.59;100.00;94991.53;15275855;19;20018;-53
2023/11/04 19:16:41;;;;;;;2.03;1.40;;;;;;;8.53;100.00;94967.50;15281667;19;20019;-50
2023/11/04 19:22:05;;;;;;;2.90;1.95;;;;;;;8.46;100.00;94938.09;15278612;19;20021;-53
2023/11/04 19:27:31;;;;;;;0.65;0.45;;;;;;;8.43;100.00;94927.81;15283714;19;20018;-53
2023/11/04 19:32:58;;;;;;;1.35;0.55;;;;;;;8.40;100.00;94922.94;15277698;19;20022;-50
2023/11/04 19:38:23;;;;;;;0.70;0.28;;;;;;;8.35;100.00;94930.88;15282254;19;20355;-50
2023/11/04 19:43:48;;;;;;;0.98;0.35;;;;;;;8.36;100.00;94943.22;15269084;19;20021;-51
2023/11/04 19:49:16;;;;;;;0.45;0.38;;;;;;;8.36;100.00;94937.88;15280744;19;20014;-49
2023/11/04 19:54:40;;;;;;;0.30;0.30;;;;;;;8.33;100.00;94950.69;15279376;19;20026;-52
2023/11/04 20:00:06;;;;;;;0.77;0.30;;;;;;;8.40;100.00;94955.94;15273119;19;20110;-50
2023/11/04 20:05:34;;;;;;;0.52;0.47;;;;;;;8.43;100.00;94955.47;15274870;19;20015;-50
2023/11/04 20:11:06;;;;;;;0.60;0.50;;;;;;;8.45;100.00;94947.19;15273728;19;20011;-53
2023/11/04 20:16:32;;;;;;;0.73;0.40;;;;;;;8.45;100.00;94939.13;15266506;19;20051;-52
2023/11/04 20:21:59;;;;;;;0.57;0.40;;;;;;;8.42;100.00;94920.81;15283849;19;20007;-50
2023/11/04 20:27:27;;;;;;;1.08;0.50;;;;;;;8.38;100.00;94920.47;15273663;19;20378;-49
2023/11/04 20:32:52;;;;;;;0.47;0.20;;;;;;;8.37;100.00;94923.41;15275171;19;20360;-51
2023/11/04 20:38:20;;;;;;;0.43;0.43;;;;;;;8.50;100.00;94933.94;15278538;19;20062;-52
2023/11/04 20:43:44;;;;;;;0.68;0.40;;;;;;;8.58;100.00;94941.63;15274490;19;20628;-54
2023/11/04 20:49:09;;;;;;;0.40;0.40;;;;;;;8.64;100.00;94959.44;15266416;19;20035;-51
2023/11/04 20:54:38;;;;;;;1.05;0.30;;;;;;;8.69;100.00;94928.41;15269188;19;20071;-52
2023/11/04 21:00:04;;;;;;;0.30;0.30;;;;;;;8.70;100.00;94924.69;15276600;19;20531;-52
2023/11/04 21:05:29;;;;;;;0.40;0.40;;;;;;;8.73;100.00;94922.34;15267094;19;20015;-53
2023/11/04 21:11:03;;;;;;;0.30;0.30;;;;;;;8.78;100.00;94918.94;15263974;19;20022;-50
2023/11/04 21:16:28;;;;;;;1.10;0.30;;;;;;;8.86;100.00;94899.81;15266559;19;20014;-53
2023/11/04 21:21:54;;;;;;;0.25;0.20;;;;;;;8.93;100.00;94892.44;15270126;19;20021;-52
2023/11/04 21:27:22;;;;;;;0.30;0.30;;;;;;;8.97;100.00;94879.34;15271984;19;20015;-49
2023/11/04 21:32:46;;;;;;;0.30;0.30;;;;;;;9.00;100.00;94861.94;15271865;19;20014;-50
2023/11/04 21:38:11;;;;;;;1.00;0.20;;;;;;;9.03;100.00;94850.72;15275528;19;20040;-51
2023/11/04 21:43:38;;;;;;;0.15;0.15;;;;;;;9.02;100.00;94849.91;15274063;19;20014;-54
2023/11/04 21:49:03;;;;;;;0.20;0.20;;;;;;;9.03;100.00;94861.47;15273001;19;20078;-48
2023/11/04 21:54:27;;;;;;;0.20;0.20;;;;;;;9.01;100.00;94868.94;15265558;19;20025;-51
2023/11/04 21:59:56;;;;;;;0.43;0.30;;;;;;;8.99;100.00;94893.34;15272736;19;20478;-53
2023/11/04 22:05:21;;;;;;;0.20;0.20;;;;;;;9.06;100.00;94906.63;15272870;19;20023;-52
2023/11/04 22:10:46;;;;;;;0.10;0.10;;;;;;;9.25;100.00;94900.00;15271340;19;20047;-52
2023/11/04 22:16:14;;;;;;;0.63;0.40;;;;;;;9.44;100.00;94891.78;15270665;19;20093;-52
2023/11/04 22:21:39;;;;;;;0.28;0.28;;;;;;;9.56;100.00;94895.22;15269801;19;20018;-49
2023/11/04 22:27:03;;;;;;;2.08;0.30;;;;;;;9.61;100.00;94894.47;15264863;19;20010;-53
2023/11/04 22:32:31;;;;;;;1.95;0.40;;;;;;;9.64;100.00;94898.56;15267712;19;20018;-48
2023/11/04 22:37:55;;;;;;;0.32;0.30;;;;;;;9.67;100.00;94876.56;15271009;19;20013;-52
2023/11/04 22:43:20;;;;;;;0.35;0.30;;;;;;;9.67;100.00;94879.25;15270639;19;20584;-48
2023/11/04 22:48:47;;;;;;;1.70;0.35;;;;;;;9.72;100.00;94871.28;15270383;19;20019;-51
2023/11/04 22:54:12;;;;;;;0.30;0.30;;;;;;;9.71;100.00;94883.06;15267641;19;20480;-54
2023/11/04 22:59:36;;;;;;;1.23;0.40;;;;;;;9.73;100.00;94872.91;15263902;19;20020;-50
2023/11/04 23:05:05;;;;;;;0.30;0.30;;;;;;;9.76;100.00;94861.66;15268003;19;20021;-50
2023/11/04 23:10:30;;;;;;;0.75;0.40;;;;;;;9.82;100.00;94843.75;15267140;19;20014;-50
2023/11/04 23:15:55;;;;;;;0.57;0.22;;;;;;;9.78;100.00;94848.81;15266410;19;20017;-51
2023/11/04 23:21:22;;;;;;;0.47;0.38;;;;;;;9.86;100.00;94850.28;15268807;19;20086;-51
2023/11/04 23:26:48;;;;;;;0.43;0.20;;;;;;;9.83;100.00;94835.44;15267189;19;20402;-52
2023/11/04 23:32:13;;;;;;;1.55;0.20;;;;;;;9.86;100.00;94842.22;15263065;19;20021;-50
2023/11/04 23:37:41;;;;;;;0.55;0.40;;;;;;;9.87;100.00;94852.72;15269931;19;20021;-53
2023/11/04 23:43:05;;;;;;;0.52;0.20;;;;;;;9.89;100.00;94857.03;15267199;19;20480;-51
2023/11/04 23:48:30;;;;;;;0.60;0.30;;;;;;;9.93;100.00;94855.50;15268803;19;20025;-49
2023/11/04 23:53:57;;;;;;;1.33;0.40;;;;;;;9.95;100.00;94845.28;15275603;19;20022;-48
2023/11/04 23:59:23;;;;;;;1.45;0.30;;;;;;;9.96;100.00;94841.53;15279209;19;20624;-54
